sensor_id;sensor_type;location;lat;lon;timestamp;P1;durP1;ratioP1;P2;durP2;ratioP2
67721;SDS011;58309;45.292;11.820;2022-12-28T00:02:08;82.97;;;45.63;;
67721;SDS011;58309;45.292;11.820;2022-12-28T00:04:34;81.40;;;46.33;;
67721;SDS011;58309;45.292;11.820;2022-12-28T00:06:59;80.93;;;45.90;;
67721;SDS011;58309;45.292;11.820;2022-12-28T00:09:25;80.10;;;44.63;;
67721;SDS011;58309;45.292;11.820;2022-12-28T00:11:50;87.10;;;46.85;;
67721;SDS011;58309;45.292;11.820;2022-12-28T00:14:16;83.70;;;45.92;;
67721;SDS011;58309;45.292;11.820;2022-12-28T00:16:42;82.72;;;45.97;;
67721;SDS011;58309;45.292;11.820;2022-12-28T00:19:12;81.68;;;45.38;;
67721;SDS011;58309;45.292;11.820;2022-12-28T00:21:39;80.70;;;44.28;;
67721;SDS011;58309;45.292;11.820;2022-12-28T00:24:06;81.00;;;45.60;;
67721;SDS011;58309;45.292;11.820;2022-12-28T00:26:33;83.00;;;45.53;;
67721;SDS011;58309;45.292;11.820;2022-12-28T00:29:00;77.28;;;44.17;;
67721;SDS011;58309;45.292;11.820;2022-12-28T00:31:26;81.38;;;44.83;;
67721;SDS011;58309;45.292;11.820;2022-12-28T00:33:51;78.93;;;45.10;;
67721;SDS011;58309;45.292;11.820;2022-12-28T00:36:17;81.68;;;45.30;;
67721;SDS011;58309;45.292;11.820;2022-12-28T00:38:43;90.03;;;47.80;;
67721;SDS011;58309;45.292;11.820;2022-12-28T00:41:09;90.80;;;48.08;;
67721;SDS011;58309;45.292;11.820;2022-12-28T00:43:35;83.45;;;46.75;;
67721;SDS011;58309;45.292;11.820;2022-12-28T00:46:01;86.00;;;48.92;;
67721;SDS011;58309;45.292;11.820;2022-12-28T00:48:27;79.82;;;46.17;;
67721;SDS011;58309;45.292;11.820;2022-12-28T00:51:04;88.97;;;48.67;;
67721;SDS011;58309;45.292;11.820;2022-12-28T00:53:36;86.40;;;47.63;;
67721;SDS011;58309;45.292;11.820;2022-12-28T00:56:18;85.65;;;46.22;;
67721;SDS011;58309;45.292;11.820;2022-12-28T00:58:44;88.13;;;47.30;;
67721;SDS011;58309;45.292;11.820;2022-12-28T01:01:21;85.00;;;46.55;;
67721;SDS011;58309;45.292;11.820;2022-12-28T01:03:47;91.60;;;46.75;;
67721;SDS011;58309;45.292;11.820;2022-12-28T01:06:14;82.60;;;45.17;;
67721;SDS011;58309;45.292;11.820;2022-12-28T01:08:41;75.65;;;44.30;;
67721;SDS011;58309;45.292;11.820;2022-12-28T01:11:08;79.05;;;44.90;;
67721;SDS011;58309;45.292;11.820;2022-12-28T01:13:36;82.05;;;44.95;;
67721;SDS011;58309;45.292;11.820;2022-12-28T01:16:12;80.63;;;45.28;;
67721;SDS011;58309;45.292;11.820;2022-12-28T01:18:39;73.30;;;42.33;;
67721;SDS011;58309;45.292;11.820;2022-12-28T01:21:12;78.18;;;42.40;;
67721;SDS011;58309;45.292;11.820;2022-12-28T01:23:39;77.80;;;42.60;;
67721;SDS011;58309;45.292;11.820;2022-12-28T01:26:05;70.07;;;41.45;;
67721;SDS011;58309;45.292;11.820;2022-12-28T01:28:31;71.35;;;40.17;;
67721;SDS011;58309;45.292;11.820;2022-12-28T01:31:01;70.03;;;38.15;;
67721;SDS011;58309;45.292;11.820;2022-12-28T01:33:37;61.78;;;35.67;;
67721;SDS011;58309;45.292;11.820;2022-12-28T01:36:06;61.55;;;35.90;;
67721;SDS011;58309;45.292;11.820;2022-12-28T01:38:33;55.35;;;33.25;;
67721;SDS011;58309;45.292;11.820;2022-12-28T01:40:59;51.83;;;33.33;;
67721;SDS011;58309;45.292;11.820;2022-12-28T01:43:42;54.33;;;32.13;;
67721;SDS011;58309;45.292;11.820;2022-12-28T01:46:18;56.92;;;31.88;;
67721;SDS011;58309;45.292;11.820;2022-12-28T01:48:53;51.33;;;31.08;;
67721;SDS011;58309;45.292;11.820;2022-12-28T01:52:08;51.47;;;31.88;;
67721;SDS011;58309;45.292;11.820;2022-12-28T01:54:55;51.85;;;31.13;;
67721;SDS011;58309;45.292;11.820;2022-12-28T01:57:24;54.53;;;30.67;;
67721;SDS011;58309;45.292;11.820;2022-12-28T01:59:54;47.63;;;29.80;;
67721;SDS011;58309;45.292;11.820;2022-12-28T02:02:26;54.08;;;30.42;;
67721;SDS011;58309;45.292;11.820;2022-12-28T02:04:53;49.25;;;30.92;;
67721;SDS011;58309;45.292;11.820;2022-12-28T02:08:02;45.97;;;28.77;;
67721;SDS011;58309;45.292;11.820;2022-12-28T02:10:12;46.38;;;28.77;;
67721;SDS011;58309;45.292;11.820;2022-12-28T02:12:40;49.05;;;29.30;;
67721;SDS011;58309;45.292;11.820;2022-12-28T02:15:06;49.40;;;28.95;;
67721;SDS011;58309;45.292;11.820;2022-12-28T02:17:32;47.65;;;28.40;;
67721;SDS011;58309;45.292;11.820;2022-12-28T02:19:58;42.65;;;27.50;;
67721;SDS011;58309;45.292;11.820;2022-12-28T02:28:13;43.95;;;25.90;;
67721;SDS011;58309;45.292;11.820;2022-12-28T02:31:10;43.50;;;26.95;;
67721;SDS011;58309;45.292;11.820;2022-12-28T02:33:50;39.10;;;25.58;;
67721;SDS011;58309;45.292;11.820;2022-12-28T02:36:36;43.83;;;25.75;;
67721;SDS011;58309;45.292;11.820;2022-12-28T02:39:07;37.50;;;25.25;;
67721;SDS011;58309;45.292;11.820;2022-12-28T02:41:39;41.60;;;24.50;;
67721;SDS011;58309;45.292;11.820;2022-12-28T02:44:06;42.33;;;25.80;;
67721;SDS011;58309;45.292;11.820;2022-12-28T02:46:32;42.72;;;24.80;;
67721;SDS011;58309;45.292;11.820;2022-12-28T02:49:17;41.28;;;24.92;;
67721;SDS011;58309;45.292;11.820;2022-12-28T03:00:17;36.72;;;23.23;;
67721;SDS011;58309;45.292;11.820;2022-12-28T03:08:26;39.05;;;22.92;;
67721;SDS011;58309;45.292;11.820;2022-12-28T03:11:17;37.60;;;22.90;;
67721;SDS011;58309;45.292;11.820;2022-12-28T03:14:01;36.75;;;22.25;;
67721;SDS011;58309;45.292;11.820;2022-12-28T03:16:38;39.17;;;22.00;;
67721;SDS011;58309;45.292;11.820;2022-12-28T03:19:36;35.75;;;21.55;;
67721;SDS011;58309;45.292;11.820;2022-12-28T03:22:25;33.08;;;21.13;;
67721;SDS011;58309;45.292;11.820;2022-12-28T03:25:13;36.28;;;21.63;;
67721;SDS011;58309;45.292;11.820;2022-12-28T03:28:01;37.55;;;22.48;;
67721;SDS011;58309;45.292;11.820;2022-12-28T03:30:50;38.55;;;22.13;;
67721;SDS011;58309;45.292;11.820;2022-12-28T03:33:34;34.45;;;22.33;;
67721;SDS011;58309;45.292;11.820;2022-12-28T03:36:17;36.53;;;22.73;;
67721;SDS011;58309;45.292;11.820;2022-12-28T03:39:08;35.23;;;21.57;;
67721;SDS011;58309;45.292;11.820;2022-12-28T03:41:35;37.85;;;22.20;;
67721;SDS011;58309;45.292;11.820;2022-12-28T03:46:52;35.10;;;22.08;;
67721;SDS011;58309;45.292;11.820;2022-12-28T03:49:23;40.17;;;23.00;;
67721;SDS011;58309;45.292;11.820;2022-12-28T03:51:49;34.70;;;22.65;;
67721;SDS011;58309;45.292;11.820;2022-12-28T03:54:16;36.95;;;22.48;;
67721;SDS011;58309;45.292;11.820;2022-12-28T03:56:46;41.13;;;23.40;;
67721;SDS011;58309;45.292;11.820;2022-12-28T03:59:13;40.03;;;23.48;;
67721;SDS011;58309;45.292;11.820;2022-12-28T04:01:39;37.90;;;24.33;;
67721;SDS011;58309;45.292;11.820;2022-12-28T04:04:05;40.78;;;24.23;;
67721;SDS011;58309;45.292;11.820;2022-12-28T04:06:30;41.00;;;23.90;;
67721;SDS011;58309;45.292;11.820;2022-12-28T04:08:56;40.20;;;23.92;;
67721;SDS011;58309;45.292;11.820;2022-12-28T04:11:21;40.30;;;23.00;;
67721;SDS011;58309;45.292;11.820;2022-12-28T04:13:47;37.85;;;23.40;;
67721;SDS011;58309;45.292;11.820;2022-12-28T04:16:13;37.95;;;23.40;;
67721;SDS011;58309;45.292;11.820;2022-12-28T04:18:39;43.60;;;24.92;;
67721;SDS011;58309;45.292;11.820;2022-12-28T04:21:09;39.87;;;24.97;;
67721;SDS011;58309;45.292;11.820;2022-12-28T04:23:35;45.17;;;25.50;;
67721;SDS011;58309;45.292;11.820;2022-12-28T04:28:28;43.53;;;24.83;;
67721;SDS011;58309;45.292;11.820;2022-12-28T04:30:55;41.95;;;25.48;;
67721;SDS011;58309;45.292;11.820;2022-12-28T04:33:21;43.45;;;25.35;;
67721;SDS011;58309;45.292;11.820;2022-12-28T04:35:47;45.00;;;24.95;;
67721;SDS011;58309;45.292;11.820;2022-12-28T04:38:12;40.67;;;24.27;;
67721;SDS011;58309;45.292;11.820;2022-12-28T04:40:38;42.00;;;23.60;;
67721;SDS011;58309;45.292;11.820;2022-12-28T04:43:03;40.30;;;24.15;;
67721;SDS011;58309;45.292;11.820;2022-12-28T04:45:29;39.92;;;23.90;;
67721;SDS011;58309;45.292;11.820;2022-12-28T04:47:58;41.95;;;24.95;;
67721;SDS011;58309;45.292;11.820;2022-12-28T04:50:24;38.25;;;22.10;;
67721;SDS011;58309;45.292;11.820;2022-12-28T04:52:50;39.40;;;24.00;;
67721;SDS011;58309;45.292;11.820;2022-12-28T04:55:16;41.75;;;24.02;;
67721;SDS011;58309;45.292;11.820;2022-12-28T04:57:42;43.35;;;25.55;;
67721;SDS011;58309;45.292;11.820;2022-12-28T05:00:08;45.65;;;24.92;;
67721;SDS011;58309;45.292;11.820;2022-12-28T05:02:35;45.83;;;24.90;;
67721;SDS011;58309;45.292;11.820;2022-12-28T05:05:00;49.35;;;26.80;;
67721;SDS011;58309;45.292;11.820;2022-12-28T05:07:26;47.25;;;25.95;;
67721;SDS011;58309;45.292;11.820;2022-12-28T05:09:52;50.65;;;27.60;;
67721;SDS011;58309;45.292;11.820;2022-12-28T05:12:18;50.72;;;27.50;;
67721;SDS011;58309;45.292;11.820;2022-12-28T05:14:44;42.25;;;25.98;;
67721;SDS011;58309;45.292;11.820;2022-12-28T05:17:09;46.90;;;25.63;;
67721;SDS011;58309;45.292;11.820;2022-12-28T05:19:35;48.03;;;26.65;;
67721;SDS011;58309;45.292;11.820;2022-12-28T05:22:00;46.33;;;26.85;;
67721;SDS011;58309;45.292;11.820;2022-12-28T05:24:26;58.45;;;35.85;;
67721;SDS011;58309;45.292;11.820;2022-12-28T05:26:51;42.03;;;24.35;;
67721;SDS011;58309;45.292;11.820;2022-12-28T05:29:17;44.45;;;24.73;;
67721;SDS011;58309;45.292;11.820;2022-12-28T05:31:43;43.60;;;25.38;;
67721;SDS011;58309;45.292;11.820;2022-12-28T05:34:08;45.22;;;25.80;;
67721;SDS011;58309;45.292;11.820;2022-12-28T05:36:34;45.03;;;24.60;;
67721;SDS011;58309;45.292;11.820;2022-12-28T05:39:02;45.75;;;24.95;;
67721;SDS011;58309;45.292;11.820;2022-12-28T05:41:28;37.08;;;22.13;;
67721;SDS011;58309;45.292;11.820;2022-12-28T05:43:55;39.50;;;22.90;;
67721;SDS011;58309;45.292;11.820;2022-12-28T05:46:26;37.00;;;21.58;;
67721;SDS011;58309;45.292;11.820;2022-12-28T05:48:57;37.10;;;20.90;;
67721;SDS011;58309;45.292;11.820;2022-12-28T05:51:30;33.83;;;19.30;;
67721;SDS011;58309;45.292;11.820;2022-12-28T05:53:59;35.08;;;19.35;;
67721;SDS011;58309;45.292;11.820;2022-12-28T05:56:28;28.13;;;17.17;;
67721;SDS011;58309;45.292;11.820;2022-12-28T05:58:56;26.00;;;15.45;;
67721;SDS011;58309;45.292;11.820;2022-12-28T06:01:29;27.70;;;16.80;;
67721;SDS011;58309;45.292;11.820;2022-12-28T06:03:58;27.23;;;17.08;;
67721;SDS011;58309;45.292;11.820;2022-12-28T06:06:25;28.05;;;18.33;;
67721;SDS011;58309;45.292;11.820;2022-12-28T06:08:51;29.50;;;17.65;;
67721;SDS011;58309;45.292;11.820;2022-12-28T06:11:21;27.38;;;17.15;;
67721;SDS011;58309;45.292;11.820;2022-12-28T06:13:48;29.50;;;17.13;;
67721;SDS011;58309;45.292;11.820;2022-12-28T06:16:15;26.40;;;16.50;;
67721;SDS011;58309;45.292;11.820;2022-12-28T06:18:55;28.60;;;17.23;;
67721;SDS011;58309;45.292;11.820;2022-12-28T06:21:22;29.25;;;17.77;;
67721;SDS011;58309;45.292;11.820;2022-12-28T06:23:49;30.10;;;17.13;;
67721;SDS011;58309;45.292;11.820;2022-12-28T06:26:16;26.83;;;16.67;;
67721;SDS011;58309;45.292;11.820;2022-12-28T06:28:44;21.88;;;14.15;;
67721;SDS011;58309;45.292;11.820;2022-12-28T06:31:11;23.20;;;14.95;;
67721;SDS011;58309;45.292;11.820;2022-12-28T06:33:41;24.77;;;15.38;;
67721;SDS011;58309;45.292;11.820;2022-12-28T06:36:26;23.80;;;15.82;;
67721;SDS011;58309;45.292;11.820;2022-12-28T06:38:57;22.60;;;16.15;;
67721;SDS011;58309;45.292;11.820;2022-12-28T06:41:24;24.65;;;14.60;;
67721;SDS011;58309;45.292;11.820;2022-12-28T06:43:50;23.58;;;14.57;;
67721;SDS011;58309;45.292;11.820;2022-12-28T06:46:17;20.17;;;13.95;;
67721;SDS011;58309;45.292;11.820;2022-12-28T06:48:44;23.48;;;14.95;;
67721;SDS011;58309;45.292;11.820;2022-12-28T06:51:11;22.15;;;13.82;;
67721;SDS011;58309;45.292;11.820;2022-12-28T06:53:42;16.45;;;12.60;;
67721;SDS011;58309;45.292;11.820;2022-12-28T06:56:12;14.77;;;11.20;;
67721;SDS011;58309;45.292;11.820;2022-12-28T06:58:40;16.08;;;10.77;;
67721;SDS011;58309;45.292;11.820;2022-12-28T07:03:33;12.70;;;8.93;;
67721;SDS011;58309;45.292;11.820;2022-12-28T07:05:59;12.98;;;9.50;;
67721;SDS011;58309;45.292;11.820;2022-12-28T07:08:25;12.38;;;9.50;;
67721;SDS011;58309;45.292;11.820;2022-12-28T07:10:51;12.85;;;9.23;;
67721;SDS011;58309;45.292;11.820;2022-12-28T07:13:16;11.90;;;8.80;;
67721;SDS011;58309;45.292;11.820;2022-12-28T07:15:42;13.77;;;9.85;;
67721;SDS011;58309;45.292;11.820;2022-12-28T07:18:08;11.70;;;9.02;;
67721;SDS011;58309;45.292;11.820;2022-12-28T07:20:34;14.23;;;9.05;;
67721;SDS011;58309;45.292;11.820;2022-12-28T07:22:59;12.50;;;8.43;;
67721;SDS011;58309;45.292;11.820;2022-12-28T07:25:25;10.68;;;8.27;;
67721;SDS011;58309;45.292;11.820;2022-12-28T07:27:50;12.43;;;8.15;;
67721;SDS011;58309;45.292;11.820;2022-12-28T07:30:16;12.60;;;8.00;;
67721;SDS011;58309;45.292;11.820;2022-12-28T07:32:42;12.20;;;7.63;;
67721;SDS011;58309;45.292;11.820;2022-12-28T07:35:07;9.93;;;7.50;;
67721;SDS011;58309;45.292;11.820;2022-12-28T07:37:33;10.27;;;7.35;;
67721;SDS011;58309;45.292;11.820;2022-12-28T07:39:59;10.55;;;7.40;;
67721;SDS011;58309;45.292;11.820;2022-12-28T07:42:24;12.27;;;8.00;;
67721;SDS011;58309;45.292;11.820;2022-12-28T07:44:50;10.55;;;7.28;;
67721;SDS011;58309;45.292;11.820;2022-12-28T07:47:16;11.25;;;7.85;;
67721;SDS011;58309;45.292;11.820;2022-12-28T07:49:42;9.15;;;7.00;;
67721;SDS011;58309;45.292;11.820;2022-12-28T07:52:07;10.48;;;7.13;;
67721;SDS011;58309;45.292;11.820;2022-12-28T07:54:33;8.90;;;7.05;;
67721;SDS011;58309;45.292;11.820;2022-12-28T07:56:58;10.60;;;7.05;;
67721;SDS011;58309;45.292;11.820;2022-12-28T07:59:24;8.82;;;6.93;;
67721;SDS011;58309;45.292;11.820;2022-12-28T08:01:49;12.75;;;7.35;;
67721;SDS011;58309;45.292;11.820;2022-12-28T08:04:15;10.60;;;7.00;;
67721;SDS011;58309;45.292;11.820;2022-12-28T08:06:42;8.88;;;6.70;;
67721;SDS011;58309;45.292;11.820;2022-12-28T08:09:09;7.50;;;6.22;;
67721;SDS011;58309;45.292;11.820;2022-12-28T08:11:38;10.32;;;6.50;;
67721;SDS011;58309;45.292;11.820;2022-12-28T08:14:05;9.35;;;6.78;;
67721;SDS011;58309;45.292;11.820;2022-12-28T08:16:32;9.43;;;6.35;;
67721;SDS011;58309;45.292;11.820;2022-12-28T08:19:00;6.90;;;5.88;;
67721;SDS011;58309;45.292;11.820;2022-12-28T08:21:31;8.48;;;5.90;;
67721;SDS011;58309;45.292;11.820;2022-12-28T08:24:16;8.38;;;6.10;;
67721;SDS011;58309;45.292;11.820;2022-12-28T08:26:43;12.90;;;7.72;;
67721;SDS011;58309;45.292;11.820;2022-12-28T08:29:10;7.88;;;5.97;;
67721;SDS011;58309;45.292;11.820;2022-12-28T08:31:39;9.50;;;6.78;;
67721;SDS011;58309;45.292;11.820;2022-12-28T08:34:06;8.13;;;6.10;;
67721;SDS011;58309;45.292;11.820;2022-12-28T08:36:33;8.38;;;6.43;;
67721;SDS011;58309;45.292;11.820;2022-12-28T08:38:59;13.40;;;7.65;;
67721;SDS011;58309;45.292;11.820;2022-12-28T08:41:26;15.05;;;9.00;;
67721;SDS011;58309;45.292;11.820;2022-12-28T08:43:53;14.07;;;8.48;;
67721;SDS011;58309;45.292;11.820;2022-12-28T08:46:23;9.63;;;6.28;;
67721;SDS011;58309;45.292;11.820;2022-12-28T08:48:51;9.75;;;5.90;;
67721;SDS011;58309;45.292;11.820;2022-12-28T08:51:21;7.35;;;5.68;;
67721;SDS011;58309;45.292;11.820;2022-12-28T08:54:06;8.15;;;5.90;;
67721;SDS011;58309;45.292;11.820;2022-12-28T08:56:34;7.47;;;6.50;;
67721;SDS011;58309;45.292;11.820;2022-12-28T08:59:01;9.45;;;6.30;;
67721;SDS011;58309;45.292;11.820;2022-12-28T09:01:32;8.10;;;6.82;;
67721;SDS011;58309;45.292;11.820;2022-12-28T09:04:01;8.93;;;6.85;;
67721;SDS011;58309;45.292;11.820;2022-12-28T09:06:31;11.02;;;8.02;;
67721;SDS011;58309;45.292;11.820;2022-12-28T09:09:00;9.35;;;6.80;;
67721;SDS011;58309;45.292;11.820;2022-12-28T09:11:26;7.15;;;6.40;;
67721;SDS011;58309;45.292;11.820;2022-12-28T09:13:52;10.98;;;6.65;;
67721;SDS011;58309;45.292;11.820;2022-12-28T09:16:18;8.90;;;6.72;;
67721;SDS011;58309;45.292;11.820;2022-12-28T09:18:51;7.70;;;6.32;;
67721;SDS011;58309;45.292;11.820;2022-12-28T09:23:45;9.85;;;6.20;;
67721;SDS011;58309;45.292;11.820;2022-12-28T09:28:38;10.77;;;6.28;;
67721;SDS011;58309;45.292;11.820;2022-12-28T09:33:34;9.15;;;6.28;;
67721;SDS011;58309;45.292;11.820;2022-12-28T09:36:19;9.70;;;6.72;;
67721;SDS011;58309;45.292;11.820;2022-12-28T09:38:45;6.13;;;5.50;;
67721;SDS011;58309;45.292;11.820;2022-12-28T09:41:14;6.60;;;5.80;;
67721;SDS011;58309;45.292;11.820;2022-12-28T09:43:47;5.70;;;5.03;;
67721;SDS011;58309;45.292;11.820;2022-12-28T09:46:16;7.20;;;5.53;;
67721;SDS011;58309;45.292;11.820;2022-12-28T09:48:45;8.93;;;5.70;;
67721;SDS011;58309;45.292;11.820;2022-12-28T09:51:18;7.47;;;5.50;;
67721;SDS011;58309;45.292;11.820;2022-12-28T09:53:46;7.35;;;5.30;;
67721;SDS011;58309;45.292;11.820;2022-12-28T09:56:26;6.10;;;5.50;;
67721;SDS011;58309;45.292;11.820;2022-12-28T09:58:58;7.20;;;4.90;;
67721;SDS011;58309;45.292;11.820;2022-12-28T10:01:24;5.78;;;5.18;;
67721;SDS011;58309;45.292;11.820;2022-12-28T10:03:51;6.45;;;4.93;;
67721;SDS011;58309;45.292;11.820;2022-12-28T10:06:22;4.95;;;4.45;;
67721;SDS011;58309;45.292;11.820;2022-12-28T10:08:51;5.35;;;4.82;;
67721;SDS011;58309;45.292;11.820;2022-12-28T10:11:23;8.40;;;5.32;;
67721;SDS011;58309;45.292;11.820;2022-12-28T10:13:57;5.50;;;4.40;;
67721;SDS011;58309;45.292;11.820;2022-12-28T10:16:25;5.47;;;4.95;;
67721;SDS011;58309;45.292;11.820;2022-12-28T10:18:53;6.68;;;4.72;;
67721;SDS011;58309;45.292;11.820;2022-12-28T10:21:20;6.72;;;4.43;;
67721;SDS011;58309;45.292;11.820;2022-12-28T10:23:48;6.00;;;4.50;;
67721;SDS011;58309;45.292;11.820;2022-12-28T10:26:17;4.73;;;4.30;;
67721;SDS011;58309;45.292;11.820;2022-12-28T10:28:54;7.47;;;5.05;;
67721;SDS011;58309;45.292;11.820;2022-12-28T10:31:33;5.30;;;4.80;;
67721;SDS011;58309;45.292;11.820;2022-12-28T10:34:01;4.78;;;4.38;;
67721;SDS011;58309;45.292;11.820;2022-12-28T10:36:37;3.50;;;3.17;;
67721;SDS011;58309;45.292;11.820;2022-12-28T10:39:03;3.65;;;3.35;;
67721;SDS011;58309;45.292;11.820;2022-12-28T10:41:34;4.20;;;3.60;;
67721;SDS011;58309;45.292;11.820;2022-12-28T10:44:10;3.70;;;3.40;;
67721;SDS011;58309;45.292;11.820;2022-12-28T10:46:49;3.75;;;3.28;;
67721;SDS011;58309;45.292;11.820;2022-12-28T10:49:45;3.10;;;2.80;;
67721;SDS011;58309;45.292;11.820;2022-12-28T10:54:40;3.40;;;3.10;;
67721;SDS011;58309;45.292;11.820;2022-12-28T10:57:16;3.45;;;3.20;;
67721;SDS011;58309;45.292;11.820;2022-12-28T10:59:42;4.63;;;3.20;;
67721;SDS011;58309;45.292;11.820;2022-12-28T11:02:28;2.90;;;2.70;;
67721;SDS011;58309;45.292;11.820;2022-12-28T11:04:57;3.08;;;2.78;;
67721;SDS011;58309;45.292;11.820;2022-12-28T11:07:26;3.20;;;2.83;;
67721;SDS011;58309;45.292;11.820;2022-12-28T11:10:18;3.83;;;2.70;;
67721;SDS011;58309;45.292;11.820;2022-12-28T11:12:51;4.00;;;2.63;;
67721;SDS011;58309;45.292;11.820;2022-12-28T11:15:21;14.18;;;6.82;;
67721;SDS011;58309;45.292;11.820;2022-12-28T11:17:53;4.50;;;3.10;;
67721;SDS011;58309;45.292;11.820;2022-12-28T11:20:33;11.63;;;5.68;;
67721;SDS011;58309;45.292;11.820;2022-12-28T11:23:05;4.50;;;3.47;;
67721;SDS011;58309;45.292;11.820;2022-12-28T11:25:33;5.07;;;3.70;;
67721;SDS011;58309;45.292;11.820;2022-12-28T11:28:01;4.72;;;3.00;;
67721;SDS011;58309;45.292;11.820;2022-12-28T11:30:31;3.80;;;3.05;;
67721;SDS011;58309;45.292;11.820;2022-12-28T11:32:57;3.78;;;3.47;;
67721;SDS011;58309;45.292;11.820;2022-12-28T11:35:28;4.13;;;3.25;;
67721;SDS011;58309;45.292;11.820;2022-12-28T11:38:00;3.28;;;2.97;;
67721;SDS011;58309;45.292;11.820;2022-12-28T11:45:57;4.20;;;3.58;;
67721;SDS011;58309;45.292;11.820;2022-12-28T11:51:21;4.45;;;3.45;;
67721;SDS011;58309;45.292;11.820;2022-12-28T11:53:50;3.35;;;3.05;;
67721;SDS011;58309;45.292;11.820;2022-12-28T11:56:20;4.00;;;3.22;;
67721;SDS011;58309;45.292;11.820;2022-12-28T12:09:47;4.32;;;3.92;;
67721;SDS011;58309;45.292;11.820;2022-12-28T12:17:36;5.38;;;3.95;;
67721;SDS011;58309;45.292;11.820;2022-12-28T12:20:12;4.00;;;3.60;;
67721;SDS011;58309;45.292;11.820;2022-12-28T12:22:58;4.40;;;3.83;;
67721;SDS011;58309;45.292;11.820;2022-12-28T12:28:07;4.40;;;3.90;;
67721;SDS011;58309;45.292;11.820;2022-12-28T12:30:45;5.35;;;4.05;;
67721;SDS011;58309;45.292;11.820;2022-12-28T12:33:15;4.43;;;4.03;;
67721;SDS011;58309;45.292;11.820;2022-12-28T12:35:52;4.47;;;4.07;;
67721;SDS011;58309;45.292;11.820;2022-12-28T12:41:08;5.38;;;4.50;;
67721;SDS011;58309;45.292;11.820;2022-12-28T12:54:45;4.80;;;4.20;;
67721;SDS011;58309;45.292;11.820;2022-12-28T13:00:22;5.05;;;4.20;;
67721;SDS011;58309;45.292;11.820;2022-12-28T13:03:16;6.25;;;4.50;;
67721;SDS011;58309;45.292;11.820;2022-12-28T13:05:52;5.53;;;4.43;;
67721;SDS011;58309;45.292;11.820;2022-12-28T13:08:40;5.95;;;4.55;;
67721;SDS011;58309;45.292;11.820;2022-12-28T13:11:11;6.22;;;4.40;;
67721;SDS011;58309;45.292;11.820;2022-12-28T13:13:39;8.13;;;4.85;;
67721;SDS011;58309;45.292;11.820;2022-12-28T13:16:11;4.72;;;4.32;;
67721;SDS011;58309;45.292;11.820;2022-12-28T13:18:50;5.55;;;4.40;;
67721;SDS011;58309;45.292;11.820;2022-12-28T13:21:40;7.60;;;4.87;;
67721;SDS011;58309;45.292;11.820;2022-12-28T13:26:58;6.68;;;4.72;;
67721;SDS011;58309;45.292;11.820;2022-12-28T13:29:26;6.72;;;4.18;;
67721;SDS011;58309;45.292;11.820;2022-12-28T13:31:55;5.05;;;4.32;;
67721;SDS011;58309;45.292;11.820;2022-12-28T13:34:22;5.53;;;4.13;;
67721;SDS011;58309;45.292;11.820;2022-12-28T13:36:52;5.55;;;4.20;;
67721;SDS011;58309;45.292;11.820;2022-12-28T13:39:29;5.05;;;3.95;;
67721;SDS011;58309;45.292;11.820;2022-12-28T13:41:57;5.72;;;4.40;;
67721;SDS011;58309;45.292;11.820;2022-12-28T13:44:25;5.35;;;4.50;;
67721;SDS011;58309;45.292;11.820;2022-12-28T13:46:57;5.57;;;4.50;;
67721;SDS011;58309;45.292;11.820;2022-12-28T13:49:32;5.97;;;4.55;;
67721;SDS011;58309;45.292;11.820;2022-12-28T13:52:08;5.60;;;4.75;;
67721;SDS011;58309;45.292;11.820;2022-12-28T13:54:37;7.00;;;5.25;;
67721;SDS011;58309;45.292;11.820;2022-12-28T13:57:04;9.85;;;6.13;;
67721;SDS011;58309;45.292;11.820;2022-12-28T13:59:31;5.22;;;4.72;;
67721;SDS011;58309;45.292;11.820;2022-12-28T14:01:59;4.93;;;4.43;;
67721;SDS011;58309;45.292;11.820;2022-12-28T14:04:26;6.85;;;5.25;;
67721;SDS011;58309;45.292;11.820;2022-12-28T14:06:53;5.60;;;4.88;;
67721;SDS011;58309;45.292;11.820;2022-12-28T14:09:19;6.20;;;4.43;;
67721;SDS011;58309;45.292;11.820;2022-12-28T14:11:46;4.80;;;4.30;;
67721;SDS011;58309;45.292;11.820;2022-12-28T14:14:12;7.95;;;4.68;;
67721;SDS011;58309;45.292;11.820;2022-12-28T14:16:39;5.72;;;4.63;;
67721;SDS011;58309;45.292;11.820;2022-12-28T14:19:05;6.25;;;4.88;;
67721;SDS011;58309;45.292;11.820;2022-12-28T14:21:36;6.63;;;5.00;;
67721;SDS011;58309;45.292;11.820;2022-12-28T14:24:06;6.95;;;5.07;;
67721;SDS011;58309;45.292;11.820;2022-12-28T14:26:34;5.90;;;5.23;;
67721;SDS011;58309;45.292;11.820;2022-12-28T14:29:02;8.38;;;5.20;;
67721;SDS011;58309;45.292;11.820;2022-12-28T14:31:38;6.10;;;5.50;;
67721;SDS011;58309;45.292;11.820;2022-12-28T14:34:05;6.75;;;5.40;;
67721;SDS011;58309;45.292;11.820;2022-12-28T14:36:45;6.03;;;5.15;;
67721;SDS011;58309;45.292;11.820;2022-12-28T14:39:19;9.82;;;5.93;;
67721;SDS011;58309;45.292;11.820;2022-12-28T14:41:51;8.43;;;5.90;;
67721;SDS011;58309;45.292;11.820;2022-12-28T14:44:25;7.50;;;5.60;;
67721;SDS011;58309;45.292;11.820;2022-12-28T14:46:55;9.38;;;5.70;;
67721;SDS011;58309;45.292;11.820;2022-12-28T15:02:49;6.95;;;5.57;;
67721;SDS011;58309;45.292;11.820;2022-12-28T15:07:59;10.00;;;7.28;;
67721;SDS011;58309;45.292;11.820;2022-12-28T15:10:25;13.52;;;7.25;;
67721;SDS011;58309;45.292;11.820;2022-12-28T15:12:50;12.75;;;6.70;;
67721;SDS011;58309;45.292;11.820;2022-12-28T15:15:15;12.38;;;7.90;;
67721;SDS011;58309;45.292;11.820;2022-12-28T15:17:41;12.60;;;8.15;;
67721;SDS011;58309;45.292;11.820;2022-12-28T15:20:07;14.20;;;7.28;;
67721;SDS011;58309;45.292;11.820;2022-12-28T15:22:32;11.20;;;7.15;;
67721;SDS011;58309;45.292;11.820;2022-12-28T15:24:58;14.15;;;7.75;;
67721;SDS011;58309;45.292;11.820;2022-12-28T15:27:24;12.60;;;7.47;;
67721;SDS011;58309;45.292;11.820;2022-12-28T15:29:49;10.77;;;7.28;;
67721;SDS011;58309;45.292;11.820;2022-12-28T15:32:15;10.98;;;7.72;;
67721;SDS011;58309;45.292;11.820;2022-12-28T15:34:40;13.35;;;7.25;;
67721;SDS011;58309;45.292;11.820;2022-12-28T15:37:06;10.82;;;7.15;;
67721;SDS011;58309;45.292;11.820;2022-12-28T15:39:32;15.13;;;9.15;;
67721;SDS011;58309;45.292;11.820;2022-12-28T15:41:57;14.68;;;9.63;;
67721;SDS011;58309;45.292;11.820;2022-12-28T15:44:23;14.80;;;9.25;;
67721;SDS011;58309;45.292;11.820;2022-12-28T15:46:48;15.45;;;8.50;;
67721;SDS011;58309;45.292;11.820;2022-12-28T15:49:14;13.02;;;8.88;;
67721;SDS011;58309;45.292;11.820;2022-12-28T15:51:41;15.65;;;8.90;;
67721;SDS011;58309;45.292;11.820;2022-12-28T15:54:07;17.17;;;11.30;;
67721;SDS011;58309;45.292;11.820;2022-12-28T15:56:34;16.80;;;9.60;;
67721;SDS011;58309;45.292;11.820;2022-12-28T15:59:02;14.38;;;9.80;;
67721;SDS011;58309;45.292;11.820;2022-12-28T16:01:30;11.20;;;8.98;;
67721;SDS011;58309;45.292;11.820;2022-12-28T16:03:58;13.30;;;8.68;;
67721;SDS011;58309;45.292;11.820;2022-12-28T16:06:25;15.63;;;9.13;;
67721;SDS011;58309;45.292;11.820;2022-12-28T16:08:56;14.23;;;9.63;;
67721;SDS011;58309;45.292;11.820;2022-12-28T16:11:23;15.18;;;10.30;;
67721;SDS011;58309;45.292;11.820;2022-12-28T16:13:50;19.08;;;12.07;;
67721;SDS011;58309;45.292;11.820;2022-12-28T16:16:24;21.42;;;12.52;;
67721;SDS011;58309;45.292;11.820;2022-12-28T16:18:54;20.23;;;13.98;;